sensor_id;sensor_type;location;lat;lon;timestamp;pressure;altitude;pressure_sealevel;temperature;humidity
6132;BME280;3097;42.692;23.278;2023-02-22T00:00:36;95005.19;;;10.41;47.37
6132;BME280;3097;42.692;23.278;2023-02-22T00:03:10;95007.97;;;10.40;47.60
6132;BME280;3097;42.692;23.278;2023-02-22T00:05:36;94997.25;;;10.43;48.26
6132;BME280;3097;42.692;23.278;2023-02-22T00:08:06;94997.41;;;10.30;48.50
6132;BME280;3097;42.692;23.278;2023-02-22T00:10:34;95003.91;;;10.14;48.27
6132;BME280;3097;42.692;23.278;2023-02-22T00:13:03;95009.88;;;10.08;48.47
6132;BME280;3097;42.692;23.278;2023-02-22T00:15:30;95008.38;;;10.00;48.59
6132;BME280;3097;42.692;23.278;2023-02-22T00:17:55;95005.19;;;10.05;49.25
6132;BME280;3097;42.692;23.278;2023-02-22T00:20:21;95004.81;;;10.01;49.38
6132;BME280;3097;42.692;23.278;2023-02-22T00:22:48;95005.75;;;9.89;49.56
6132;BME280;3097;42.692;23.278;2023-02-22T00:25:22;95002.94;;;9.72;50.05
6132;BME280;3097;42.692;23.278;2023-02-22T00:27:49;95000.22;;;9.67;49.81
6132;BME280;3097;42.692;23.278;2023-02-22T00:30:22;95005.25;;;9.55;50.24
6132;BME280;3097;42.692;23.278;2023-02-22T00:32:48;95004.75;;;9.47;50.45
6132;BME280;3097;42.692;23.278;2023-02-22T00:35:15;94998.38;;;9.49;50.35
6132;BME280;3097;42.692;23.278;2023-02-22T00:37:41;94993.50;;;9.41;50.62
6132;BME280;3097;42.692;23.278;2023-02-22T00:40:11;94994.28;;;9.42;50.96
6132;BME280;3097;42.692;23.278;2023-02-22T00:42:38;94992.75;;;9.34;51.03
6132;BME280;3097;42.692;23.278;2023-02-22T00:45:05;94988.06;;;9.31;50.99
6132;BME280;3097;42.692;23.278;2023-02-22T00:47:31;94985.88;;;9.28;51.14
6132;BME280;3097;42.692;23.278;2023-02-22T00:49:57;94983.56;;;9.20;51.32
6132;BME280;3097;42.692;23.278;2023-02-22T00:52:22;94975.19;;;9.06;51.37
6132;BME280;3097;42.692;23.278;2023-02-22T00:54:48;94973.78;;;9.04;51.43
6132;BME280;3097;42.692;23.278;2023-02-22T00:57:13;94979.72;;;9.04;51.66
6132;BME280;3097;42.692;23.278;2023-02-22T00:59:39;94968.13;;;8.95;51.57
6132;BME280;3097;42.692;23.278;2023-02-22T01:02:04;94972.56;;;8.81;52.19
6132;BME280;3097;42.692;23.278;2023-02-22T01:04:29;94973.03;;;8.72;52.25
6132;BME280;3097;42.692;23.278;2023-02-22T01:06:55;94972.25;;;8.71;52.50
6132;BME280;3097;42.692;23.278;2023-02-22T01:09:21;94969.69;;;8.71;52.73
6132;BME280;3097;42.692;23.278;2023-02-22T01:11:49;94962.41;;;8.62;53.05
6132;BME280;3097;42.692;23.278;2023-02-22T01:14:19;94933.69;;;8.40;53.02
6132;BME280;3097;42.692;23.278;2023-02-22T01:16:45;94964.81;;;8.57;53.37
6132;BME280;3097;42.692;23.278;2023-02-22T01:19:10;94964.84;;;8.50;53.67
6132;BME280;3097;42.692;23.278;2023-02-22T01:21:39;94931.34;;;8.32;53.45
6132;BME280;3097;42.692;23.278;2023-02-22T01:24:04;94963.25;;;8.56;53.88
6132;BME280;3097;42.692;23.278;2023-02-22T01:26:29;94967.06;;;8.40;54.13
6132;BME280;3097;42.692;23.278;2023-02-22T01:28:55;94954.81;;;8.42;54.05
6132;BME280;3097;42.692;23.278;2023-02-22T01:31:20;94961.31;;;8.44;53.74
6132;BME280;3097;42.692;23.278;2023-02-22T01:33:49;94958.03;;;8.31;53.93
6132;BME280;3097;42.692;23.278;2023-02-22T01:36:15;94940.44;;;8.21;54.27
6132;BME280;3097;42.692;23.278;2023-02-22T01:38:41;94955.63;;;8.36;54.23
6132;BME280;3097;42.692;23.278;2023-02-22T01:41:06;94955.84;;;8.34;54.36
6132;BME280;3097;42.692;23.278;2023-02-22T01:43:32;94959.81;;;8.24;54.49
6132;BME280;3097;42.692;23.278;2023-02-22T01:46:04;94955.81;;;8.28;54.23
6132;BME280;3097;42.692;23.278;2023-02-22T01:48:38;94925.94;;;8.02;54.38
6132;BME280;3097;42.692;23.278;2023-02-22T01:51:20;94947.22;;;8.09;54.44
6132;BME280;3097;42.692;23.278;2023-02-22T01:53:52;94966.13;;;8.21;54.54
6132;BME280;3097;42.692;23.278;2023-02-22T01:56:20;94960.03;;;8.15;55.01
6132;BME280;3097;42.692;23.278;2023-02-22T01:59:00;94964.78;;;8.05;55.02
6132;BME280;3097;42.692;23.278;2023-02-22T02:01:27;94964.00;;;8.05;55.13
6132;BME280;3097;42.692;23.278;2023-02-22T02:03:59;94919.91;;;7.70;55.13
6132;BME280;3097;42.692;23.278;2023-02-22T02:06:27;94963.66;;;7.95;55.33
6132;BME280;3097;42.692;23.278;2023-02-22T02:09:03;94967.41;;;7.92;55.66
6132;BME280;3097;42.692;23.278;2023-02-22T02:11:31;94920.75;;;7.57;55.67
6132;BME280;3097;42.692;23.278;2023-02-22T02:13:57;94968.25;;;7.80;55.81
6132;BME280;3097;42.692;23.278;2023-02-22T02:16:37;94969.25;;;7.72;56.17
6132;BME280;3097;42.692;23.278;2023-02-22T02:19:56;94962.75;;;7.63;56.15
6132;BME280;3097;42.692;23.278;2023-02-22T02:27:15;94961.22;;;7.35;56.92
6132;BME280;3097;42.692;23.278;2023-02-22T02:37:51;94988.81;;;7.40;57.22
6132;BME280;3097;42.692;23.278;2023-02-22T02:43:03;94987.63;;;7.23;58.34
6132;BME280;3097;42.692;23.278;2023-02-22T02:45:39;94980.72;;;7.30;57.92
6132;BME280;3097;42.692;23.278;2023-02-22T02:48:08;94968.91;;;7.22;58.25
6132;BME280;3097;42.692;23.278;2023-02-22T02:50:44;94978.19;;;7.23;57.98
6132;BME280;3097;42.692;23.278;2023-02-22T02:53:13;94979.75;;;7.24;57.95
6132;BME280;3097;42.692;23.278;2023-02-22T02:55:41;94959.25;;;6.98;58.29
6132;BME280;3097;42.692;23.278;2023-02-22T02:58:07;94991.78;;;7.11;58.47
6132;BME280;3097;42.692;23.278;2023-02-22T03:00:38;94992.97;;;7.08;58.51
6132;BME280;3097;42.692;23.278;2023-02-22T03:03:43;94980.16;;;7.02;58.20
6132;BME280;3097;42.692;23.278;2023-02-22T03:08:53;94989.59;;;7.01;58.30
6132;BME280;3097;42.692;23.278;2023-02-22T03:11:27;94991.19;;;7.02;58.06
6132;BME280;3097;42.692;23.278;2023-02-22T03:19:08;94997.47;;;6.80;58.73
6132;BME280;3097;42.692;23.278;2023-02-22T03:24:24;94994.69;;;6.75;58.90
6132;BME280;3097;42.692;23.278;2023-02-22T03:29:30;94982.69;;;6.69;58.89
6132;BME280;3097;42.692;23.278;2023-02-22T03:32:02;94972.81;;;6.66;58.97
6132;BME280;3097;42.692;23.278;2023-02-22T03:34:34;94983.66;;;6.68;59.17
6132;BME280;3097;42.692;23.278;2023-02-22T03:37:16;94990.56;;;6.67;59.55
6132;BME280;3097;42.692;23.278;2023-02-22T03:39:43;94990.13;;;6.64;59.68
6132;BME280;3097;42.692;23.278;2023-02-22T03:42:15;94981.84;;;6.61;59.57
6132;BME280;3097;42.692;23.278;2023-02-22T03:44:44;94987.38;;;6.58;59.78
6132;BME280;3097;42.692;23.278;2023-02-22T03:47:15;94980.28;;;6.60;60.21
6132;BME280;3097;42.692;23.278;2023-02-22T03:49:52;94996.03;;;6.64;59.96
6132;BME280;3097;42.692;23.278;2023-02-22T03:52:19;94970.22;;;6.52;59.94
6132;BME280;3097;42.692;23.278;2023-02-22T03:54:49;94984.63;;;6.60;59.88
6132;BME280;3097;42.692;23.278;2023-02-22T03:57:26;94990.91;;;6.57;60.27
6132;BME280;3097;42.692;23.278;2023-02-22T03:59:53;94980.88;;;6.63;60.25
6132;BME280;3097;42.692;23.278;2023-02-22T04:02:18;94991.13;;;6.63;60.39
6132;BME280;3097;42.692;23.278;2023-02-22T04:04:47;94990.53;;;6.60;60.37
6132;BME280;3097;42.692;23.278;2023-02-22T04:07:12;94980.06;;;6.55;60.38
6132;BME280;3097;42.692;23.278;2023-02-22T04:09:38;94985.78;;;6.57;60.05
6132;BME280;3097;42.692;23.278;2023-02-22T04:12:03;94971.81;;;6.60;60.06
6132;BME280;3097;42.692;23.278;2023-02-22T04:14:29;94980.06;;;6.62;60.21
6132;BME280;3097;42.692;23.278;2023-02-22T04:16:54;94982.44;;;6.64;60.51
6132;BME280;3097;42.692;23.278;2023-02-22T04:19:20;94986.78;;;6.70;60.13
6132;BME280;3097;42.692;23.278;2023-02-22T04:21:46;94991.53;;;6.66;60.47
6132;BME280;3097;42.692;23.278;2023-02-22T04:24:12;94989.94;;;6.65;60.33
6132;BME280;3097;42.692;23.278;2023-02-22T04:26:38;94970.59;;;6.43;60.82
6132;BME280;3097;42.692;23.278;2023-02-22T04:29:03;94988.16;;;6.52;60.76
6132;BME280;3097;42.692;23.278;2023-02-22T04:31:29;94994.09;;;6.66;60.20
6132;BME280;3097;42.692;23.278;2023-02-22T04:33:55;94996.47;;;6.68;60.32
6132;BME280;3097;42.692;23.278;2023-02-22T04:36:21;94992.09;;;6.61;60.25
6132;BME280;3097;42.692;23.278;2023-02-22T04:38:47;94993.28;;;6.59;60.22
6132;BME280;3097;42.692;23.278;2023-02-22T04:41:12;94990.31;;;6.55;60.28
6132;BME280;3097;42.692;23.278;2023-02-22T04:43:38;94995.50;;;6.69;60.00
6132;BME280;3097;42.692;23.278;2023-02-22T04:46:04;94999.03;;;6.68;59.98
6132;BME280;3097;42.692;23.278;2023-02-22T04:48:29;94986.41;;;6.66;59.91
6132;BME280;3097;42.692;23.278;2023-02-22T04:50:55;94982.44;;;6.64;59.92
6132;BME280;3097;42.692;23.278;2023-02-22T04:53:20;94993.50;;;6.64;59.71
6132;BME280;3097;42.692;23.278;2023-02-22T04:55:45;95001.34;;;6.63;59.93
6132;BME280;3097;42.692;23.278;2023-02-22T04:58:11;94959.94;;;6.39;59.86
6132;BME280;3097;42.692;23.278;2023-02-22T05:00:36;94957.59;;;6.38;60.29
6132;BME280;3097;42.692;23.278;2023-02-22T05:03:02;94997.00;;;6.56;60.23
6132;BME280;3097;42.692;23.278;2023-02-22T05:05:27;94986.72;;;6.37;60.44
6132;BME280;3097;42.692;23.278;2023-02-22T05:07:53;94999.16;;;6.46;60.11
6132;BME280;3097;42.692;23.278;2023-02-22T05:10:18;95008.81;;;6.44;60.30
6132;BME280;3097;42.692;23.278;2023-02-22T05:12:44;95009.19;;;6.41;60.40
6132;BME280;3097;42.692;23.278;2023-02-22T05:15:14;95004.47;;;6.38;60.71
6132;BME280;3097;42.692;23.278;2023-02-22T05:17:39;95008.38;;;6.34;60.82
6132;BME280;3097;42.692;23.278;2023-02-22T05:20:05;94982.31;;;6.17;60.63
6132;BME280;3097;42.692;23.278;2023-02-22T05:22:33;94999.81;;;6.14;60.98
6132;BME280;3097;42.692;23.278;2023-02-22T05:24:58;95017.22;;;6.32;60.55
6132;BME280;3097;42.692;23.278;2023-02-22T05:27:24;95016.66;;;6.36;60.74
6132;BME280;3097;42.692;23.278;2023-02-22T05:29:49;95020.78;;;6.31;60.59
6132;BME280;3097;42.692;23.278;2023-02-22T05:32:15;95025.31;;;6.35;60.50
6132;BME280;3097;42.692;23.278;2023-02-22T05:34:40;95029.44;;;6.36;60.20
6132;BME280;3097;42.692;23.278;2023-02-22T05:37:05;95027.25;;;6.27;61.69
6132;BME280;3097;42.692;23.278;2023-02-22T05:39:31;95039.09;;;6.34;63.92
6132;BME280;3097;42.692;23.278;2023-02-22T05:41:57;95030.88;;;6.45;64.11
6132;BME280;3097;42.692;23.278;2023-02-22T05:44:23;95042.34;;;6.63;63.19
6132;BME280;3097;42.692;23.278;2023-02-22T05:46:48;94993.44;;;6.44;61.34
6132;BME280;3097;42.692;23.278;2023-02-22T05:49:14;95035.28;;;6.78;60.25
6132;BME280;3097;42.692;23.278;2023-02-22T05:51:40;95039.06;;;6.95;59.52
6132;BME280;3097;42.692;23.278;2023-02-22T05:54:06;95033.31;;;6.80;59.69
6132;BME280;3097;42.692;23.278;2023-02-22T05:56:31;95048.31;;;6.76;59.42
6132;BME280;3097;42.692;23.278;2023-02-22T05:58:56;95050.03;;;6.69;59.56
6132;BME280;3097;42.692;23.278;2023-02-22T06:01:23;95053.00;;;6.66;59.82
6132;BME280;3097;42.692;23.278;2023-02-22T06:03:49;95051.38;;;6.52;62.14
6132;BME280;3097;42.692;23.278;2023-02-22T06:06:15;95057.72;;;6.69;62.55
6132;BME280;3097;42.692;23.278;2023-02-22T06:08:41;95028.94;;;6.60;62.27
6132;BME280;3097;42.692;23.278;2023-02-22T06:11:07;95043.19;;;6.83;61.72
6132;BME280;3097;42.692;23.278;2023-02-22T06:13:34;95058.97;;;6.99;61.16
6132;BME280;3097;42.692;23.278;2023-02-22T06:16:00;95053.28;;;7.04;61.23
6132;BME280;3097;42.692;23.278;2023-02-22T06:18:26;94918.56;;;6.29;60.14
6132;BME280;3097;42.692;23.278;2023-02-22T06:20:52;95058.44;;;7.30;59.51
6132;BME280;3097;42.692;23.278;2023-02-22T06:23:17;95047.00;;;7.39;58.98
6132;BME280;3097;42.692;23.278;2023-02-22T06:25:43;95042.09;;;7.58;58.03
6132;BME280;3097;42.692;23.278;2023-02-22T06:28:09;95044.47;;;7.66;58.31
6132;BME280;3097;42.692;23.278;2023-02-22T06:30:35;95051.72;;;7.75;57.28
6132;BME280;3097;42.692;23.278;2023-02-22T06:33:00;95051.72;;;7.82;57.47
6132;BME280;3097;42.692;23.278;2023-02-22T06:35:25;95048.56;;;7.87;57.20
6132;BME280;3097;42.692;23.278;2023-02-22T06:37:51;95039.47;;;7.91;57.15
6132;BME280;3097;42.692;23.278;2023-02-22T06:40:17;95044.41;;;7.99;56.26
6132;BME280;3097;42.692;23.278;2023-02-22T06:42:42;95048.13;;;8.09;56.16
6132;BME280;3097;42.692;23.278;2023-02-22T06:45:08;95036.66;;;8.12;55.65
6132;BME280;3097;42.692;23.278;2023-02-22T06:47:38;95026.97;;;8.14;55.22
6132;BME280;3097;42.692;23.278;2023-02-22T06:50:04;95056.22;;;8.33;54.74
6132;BME280;3097;42.692;23.278;2023-02-22T06:52:30;95054.56;;;8.45;54.41
6132;BME280;3097;42.692;23.278;2023-02-22T06:54:55;95059.31;;;8.48;53.75
6132;BME280;3097;42.692;23.278;2023-02-22T06:57:21;95058.88;;;8.58;53.34
6132;BME280;3097;42.692;23.278;2023-02-22T06:59:46;95047.63;;;8.52;53.49
6132;BME280;3097;42.692;23.278;2023-02-22T07:02:12;95021.03;;;8.33;53.94
6132;BME280;3097;42.692;23.278;2023-02-22T07:04:38;95048.97;;;8.61;54.20
6132;BME280;3097;42.692;23.278;2023-02-22T07:07:04;95048.91;;;8.74;53.33
6132;BME280;3097;42.692;23.278;2023-02-22T07:09:30;95048.53;;;8.77;53.63
6132;BME280;3097;42.692;23.278;2023-02-22T07:11:55;95033.50;;;8.74;53.63
6132;BME280;3097;42.692;23.278;2023-02-22T07:14:39;95042.16;;;8.86;53.45
6132;BME280;3097;42.692;23.278;2023-02-22T07:17:05;95046.00;;;9.02;53.06
6132;BME280;3097;42.692;23.278;2023-02-22T07:19:31;95049.19;;;8.98;52.68
6132;BME280;3097;42.692;23.278;2023-02-22T07:21:57;95021.00;;;8.84;53.16
6132;BME280;3097;42.692;23.278;2023-02-22T07:24:24;95050.81;;;9.48;53.62
6132;BME280;3097;42.692;23.278;2023-02-22T07:26:51;95043.31;;;11.29;49.21
6132;BME280;3097;42.692;23.278;2023-02-22T07:29:18;95014.44;;;13.84;43.24
6132;BME280;3097;42.692;23.278;2023-02-22T07:31:43;95025.13;;;16.66;36.46
6132;BME280;3097;42.692;23.278;2023-02-22T07:34:08;95029.53;;;18.78;33.23
6132;BME280;3097;42.692;23.278;2023-02-22T07:36:34;95020.81;;;21.00;29.33
6132;BME280;3097;42.692;23.278;2023-02-22T07:38:59;95023.16;;;22.64;27.16
6132;BME280;3097;42.692;23.278;2023-02-22T07:41:25;95019.13;;;24.10;25.18
6132;BME280;3097;42.692;23.278;2023-02-22T07:43:50;95009.25;;;25.47;23.92
6132;BME280;3097;42.692;23.278;2023-02-22T07:46:16;95007.22;;;26.42;22.68
6132;BME280;3097;42.692;23.278;2023-02-22T07:48:41;95015.69;;;27.15;21.31
6132;BME280;3097;42.692;23.278;2023-02-22T07:51:07;95006.28;;;28.12;20.14
6132;BME280;3097;42.692;23.278;2023-02-22T07:53:33;95014.22;;;28.45;20.29
6132;BME280;3097;42.692;23.278;2023-02-22T07:56:01;95007.25;;;29.02;19.51
6132;BME280;3097;42.692;23.278;2023-02-22T07:58:28;95001.09;;;29.66;19.28
6132;BME280;3097;42.692;23.278;2023-02-22T08:00:54;95002.97;;;29.25;18.90
6132;BME280;3097;42.692;23.278;2023-02-22T08:03:23;95003.47;;;29.55;18.93
6132;BME280;3097;42.692;23.278;2023-02-22T08:05:52;94997.41;;;29.54;18.86
6132;BME280;3097;42.692;23.278;2023-02-22T08:08:18;95000.81;;;29.15;18.29
6132;BME280;3097;42.692;23.278;2023-02-22T08:10:44;95001.09;;;28.85;19.05
6132;BME280;3097;42.692;23.278;2023-02-22T08:13:10;94998.84;;;28.39;19.67
6132;BME280;3097;42.692;23.278;2023-02-22T08:15:37;95002.75;;;27.96;19.84
6132;BME280;3097;42.692;23.278;2023-02-22T08:18:06;95002.34;;;27.11;20.30
6132;BME280;3097;42.692;23.278;2023-02-22T08:20:37;95005.31;;;26.04;21.66
6132;BME280;3097;42.692;23.278;2023-02-22T08:23:03;95001.03;;;25.22;22.32
6132;BME280;3097;42.692;23.278;2023-02-22T08:25:29;95004.88;;;24.42;23.84
6132;BME280;3097;42.692;23.278;2023-02-22T08:28:04;95009.34;;;23.80;24.45
6132;BME280;3097;42.692;23.278;2023-02-22T08:30:31;94999.28;;;23.01;25.34
6132;BME280;3097;42.692;23.278;2023-02-22T08:32:57;95009.13;;;22.27;26.29
6132;BME280;3097;42.692;23.278;2023-02-22T08:35:23;94998.72;;;21.44;26.75
6132;BME280;3097;42.692;23.278;2023-02-22T08:37:53;95009.34;;;20.96;27.46
6132;BME280;3097;42.692;23.278;2023-02-22T08:40:22;95002.84;;;20.70;27.88
6132;BME280;3097;42.692;23.278;2023-02-22T08:42:47;94993.38;;;20.26;28.87
6132;BME280;3097;42.692;23.278;2023-02-22T08:45:13;95003.59;;;20.28;29.50
6132;BME280;3097;42.692;23.278;2023-02-22T08:47:39;94982.41;;;20.24;29.48
6132;BME280;3097;42.692;23.278;2023-02-22T08:50:06;94997.56;;;20.27;28.84
6132;BME280;3097;42.692;23.278;2023-02-22T08:52:32;94990.41;;;20.09;29.46
6132;BME280;3097;42.692;23.278;2023-02-22T08:54:57;94996.84;;;19.93;29.95
6132;BME280;3097;42.692;23.278;2023-02-22T08:57:23;94993.84;;;19.81;30.23
6132;BME280;3097;42.692;23.278;2023-02-22T08:59:48;94996.66;;;19.55;30.40
6132;BME280;3097;42.692;23.278;2023-02-22T09:02:16;94997.78;;;19.44;30.83
6132;BME280;3097;42.692;23.278;2023-02-22T09:04:42;94991.94;;;19.23;31.24
6132;BME280;3097;42.692;23.278;2023-02-22T09:07:07;94995.13;;;19.10;31.64
6132;BME280;3097;42.692;23.278;2023-02-22T09:09:33;94992.81;;;19.04;31.27
6132;BME280;3097;42.692;23.278;2023-02-22T09:11:58;94993.94;;;18.87;31.55
6132;BME280;3097;42.692;23.278;2023-02-22T09:14:24;94986.19;;;18.77;32.38
6132;BME280;3097;42.692;23.278;2023-02-22T09:16:49;94991.44;;;18.67;32.20
6132;BME280;3097;42.692;23.278;2023-02-22T09:19:14;94985.25;;;18.48;33.45
6132;BME280;3097;42.692;23.278;2023-02-22T09:21:40;94987.09;;;18.37;34.24
6132;BME280;3097;42.692;23.278;2023-02-22T09:24:06;94986.59;;;18.35;34.11
6132;BME280;3097;42.692;23.278;2023-02-22T09:26:36;94986.09;;;18.28;34.16
6132;BME280;3097;42.692;23.278;2023-02-22T09:29:08;94984.25;;;18.29;34.14
6132;BME280;3097;42.692;23.278;2023-02-22T09:31:37;94985.31;;;18.33;34.42
6132;BME280;3097;42.692;23.278;2023-02-22T09:34:05;94987.41;;;18.21;33.50
6132;BME280;3097;42.692;23.278;2023-02-22T09:36:41;94981.47;;;18.05;34.68
6132;BME280;3097;42.692;23.278;2023-02-22T09:39:07;94978.59;;;18.01;35.39
6132;BME280;3097;42.692;23.278;2023-02-22T09:41:47;94978.59;;;18.06;35.35
6132;BME280;3097;42.692;23.278;2023-02-22T09:44:23;94980.97;;;18.03;35.08
6132;BME280;3097;42.692;23.278;2023-02-22T09:46:53;94978.84;;;18.05;34.84
6132;BME280;3097;42.692;23.278;2023-02-22T09:49:22;94970.81;;;17.96;35.20
6132;BME280;3097;42.692;23.278;2023-02-22T09:54:37;94957.78;;;17.61;35.63
6132;BME280;3097;42.692;23.278;2023-02-22T09:57:06;94969.78;;;17.77;35.29
6132;BME280;3097;42.692;23.278;2023-02-22T09:59:38;94968.25;;;17.66;35.29
6132;BME280;3097;42.692;23.278;2023-02-22T10:02:17;94960.94;;;17.63;35.71
6132;BME280;3097;42.692;23.278;2023-02-22T10:04:51;94943.19;;;17.55;36.09
6132;BME280;3097;42.692;23.278;2023-02-22T10:07:39;94954.94;;;17.72;35.98
6132;BME280;3097;42.692;23.278;2023-02-22T10:10:17;94913.75;;;17.49;36.02
6132;BME280;3097;42.692;23.278;2023-02-22T10:12:54;94938.25;;;17.63;36.04
6132;BME280;3097;42.692;23.278;2023-02-22T10:15:35;94931.22;;;17.64;35.72
6132;BME280;3097;42.692;23.278;2023-02-22T10:21:44;94926.53;;;17.40;36.26
6132;BME280;3097;42.692;23.278;2023-02-22T10:26:51;94917.13;;;17.45;36.43
6132;BME280;3097;42.692;23.278;2023-02-22T10:31:56;94909.84;;;17.31;36.05
6132;BME280;3097;42.692;23.278;2023-02-22T10:34:25;94908.28;;;17.25;36.10
6132;BME280;3097;42.692;23.278;2023-02-22T10:39:40;94897.63;;;17.12;37.11
6132;BME280;3097;42.692;23.278;2023-02-22T10:42:07;94885.38;;;17.02;36.84
6132;BME280;3097;42.692;23.278;2023-02-22T10:44:37;94888.25;;;17.06;36.86
6132;BME280;3097;42.692;23.278;2023-02-22T10:47:09;94865.59;;;16.96;36.51
6132;BME280;3097;42.692;23.278;2023-02-22T10:49:39;94876.00;;;16.96;37.89
6132;BME280;3097;42.692;23.278;2023-02-22T10:52:22;94869.50;;;17.03;36.55
6132;BME280;3097;42.692;23.278;2023-02-22T10:54:49;94871.31;;;16.98;37.28
6132;BME280;3097;42.692;23.278;2023-02-22T10:57:21;94869.25;;;16.90;37.96
6132;BME280;3097;42.692;23.278;2023-02-22T10:59:47;94867.66;;;16.89;37.69
6132;BME280;3097;42.692;23.278;2023-02-22T11:02:20;94860.91;;;16.98;37.14
6132;BME280;3097;42.692;23.278;2023-02-22T11:04:50;94861.41;;;17.00;36.97
6132;BME280;3097;42.692;23.278;2023-02-22T11:10:03;94854.63;;;17.09;36.30
6132;BME280;3097;42.692;23.278;2023-02-22T11:12:36;94850.75;;;17.12;36.66
6132;BME280;3097;42.692;23.278;2023-02-22T11:15:26;94849.44;;;17.19;36.79
6132;BME280;3097;42.692;23.278;2023-02-22T11:17:55;94848.66;;;17.09;36.41
6132;BME280;3097;42.692;23.278;2023-02-22T11:20:27;94851.53;;;17.12;36.57
6132;BME280;3097;42.692;23.278;2023-02-22T11:22:58;94821.31;;;16.96;35.28
6132;BME280;3097;42.692;23.278;2023-02-22T11:25:28;94835.88;;;17.17;34.51
6132;BME280;3097;42.692;23.278;2023-02-22T11:28:06;94830.13;;;17.15;33.79
6132;BME280;3097;42.692;23.278;2023-02-22T11:30:33;94838.50;;;16.97;34.74
6132;BME280;3097;42.692;23.278;2023-02-22T11:33:20;94824.69;;;17.01;34.71
6132;BME280;3097;42.692;23.278;2023-02-22T11:35:53;94827.81;;;17.14;34.65
6132;BME280;3097;42.692;23.278;2023-02-22T11:43:28;94814.00;;;17.18;34.47
6132;BME280;3097;42.692;23.278;2023-02-22T11:46:05;94827.28;;;17.27;33.44
6132;BME280;3097;42.692;23.278;2023-02-22T11:48:34;94815.56;;;17.19;33.40
6132;BME280;3097;42.692;23.278;2023-02-22T11:52:07;94816.13;;;17.06;33.77
6132;BME280;3097;42.692;23.278;2023-02-22T11:56:48;94701.06;;;16.33;35.13
6132;BME280;3097;42.692;23.278;2023-02-22T11:59:18;94807.75;;;16.99;34.94
6132;BME280;3097;42.692;23.278;2023-02-22T12:01:54;94801.50;;;17.10;34.08
6132;BME280;3097;42.692;23.278;2023-02-22T12:07:33;94795.28;;;17.06;34.00
6132;BME280;3097;42.692;23.278;2023-02-22T12:10:29;94799.41;;;17.07;34.55
6132;BME280;3097;42.692;23.278;2023-02-22T12:13:23;94797.06;;;17.16;33.73
6132;BME280;3097;42.692;23.278;2023-02-22T12:16:05;94796.53;;;17.19;33.87
6132;BME280;3097;42.692;23.278;2023-02-22T12:21:06;94791.31;;;17.24;34.10
6132;BME280;3097;42.692;23.278;2023-02-22T12:26:08;94717.66;;;16.93;33.51
6132;BME280;3097;42.692;23.278;2023-02-22T12:28:39;94772.78;;;17.30;33.70
6132;BME280;3097;42.692;23.278;2023-02-22T12:31:23;94769.66;;;17.33;33.58
6132;BME280;3097;42.692;23.278;2023-02-22T12:34:05;94770.72;;;17.32;33.27
6132;BME280;3097;42.692;23.278;2023-02-22T12:47:56;94760.84;;;17.24;33.00
6132;BME280;3097;42.692;23.278;2023-02-22T12:50:28;94769.16;;;17.26;33.29
6132;BME280;3097;42.692;23.278;2023-02-22T12:55:43;94739.50;;;17.07;32.81
6132;BME280;3097;42.692;23.278;2023-02-22T12:58:45;94755.91;;;17.18;33.80
6132;BME280;3097;42.692;23.278;2023-02-22T13:01:16;94763.47;;;17.19;33.97
6132;BME280;3097;42.692;23.278;2023-02-22T13:03:44;94748.81;;;17.44;32.45
6132;BME280;3097;42.692;23.278;2023-02-22T13:22:47;94738.91;;;17.40;31.54
6132;BME280;3097;42.692;23.278;2023-02-22T13:25:26;94744.38;;;17.44;32.35
6132;BME280;3097;42.692;23.278;2023-02-22T13:27:54;94746.50;;;17.27;32.72
6132;BME280;3097;42.692;23.278;2023-02-22T13:30:39;94740.75;;;17.30;33.04
6132;BME280;3097;42.692;23.278;2023-02-22T13:33:17;94745.75;;;17.21;33.27
6132;BME280;3097;42.692;23.278;2023-02-22T13:49:26;94736.56;;;17.39;33.77
6132;BME280;3097;42.692;23.278;2023-02-22T13:52:00;94735.75;;;17.49;33.44
6132;BME280;3097;42.692;23.278;2023-02-22T13:56:59;94720.44;;;17.32;33.63
6132;BME280;3097;42.692;23.278;2023-02-22T13:59:35;94718.66;;;17.17;34.07
6132;BME280;3097;42.692;23.278;2023-02-22T14:02:03;94733.22;;;17.28;33.99
6132;BME280;3097;42.692;23.278;2023-02-22T14:06:57;94733.19;;;17.33;34.06
6132;BME280;3097;42.692;23.278;2023-02-22T14:09:53;94739.91;;;17.45;34.09
6132;BME280;3097;42.692;23.278;2023-02-22T14:15:18;94735.47;;;17.45;33.84
6132;BME280;3097;42.692;23.278;2023-02-22T14:18:05;94740.69;;;17.50;33.87
6132;BME280;3097;42.692;23.278;2023-02-22T14:20:34;94741.44;;;17.56;33.41
6132;BME280;3097;42.692;23.278;2023-02-22T14:25:52;94737.88;;;17.36;33.99
6132;BME280;3097;42.692;23.278;2023-02-22T14:28:49;94737.88;;;17.36;34.06
6132;BME280;3097;42.692;23.278;2023-02-22T14:31:18;94734.50;;;17.36;34.75
6132;BME280;3097;42.692;23.278;2023-02-22T14:39:28;94741.47;;;17.46;34.74
6132;BME280;3097;42.692;23.278;2023-02-22T14:42:03;94725.09;;;17.40;34.76
6132;BME280;3097;42.692;23.278;2023-02-22T14:44:39;94691.31;;;17.10;35.09
6132;BME280;3097;42.692;23.278;2023-02-22T14:47:15;94694.47;;;17.12;33.85
6132;BME280;3097;42.692;23.278;2023-02-22T14:49:46;94726.94;;;17.34;33.55
6132;BME280;3097;42.692;23.278;2023-02-22T14:52:20;94723.84;;;17.27;34.16
6132;BME280;3097;42.692;23.278;2023-02-22T14:55:28;94732.47;;;17.18;33.92
6132;BME280;3097;42.692;23.278;2023-02-22T15:00:37;94728.03;;;17.18;33.79
6132;BME280;3097;42.692;23.278;2023-02-22T15:03:04;94723.91;;;17.02;34.66
6132;BME280;3097;42.692;23.278;2023-02-22T15:05:36;94730.13;;;17.11;35.16
6132;BME280;3097;42.692;23.278;2023-02-22T15:08:07;94727.00;;;17.19;35.55
6132;BME280;3097;42.692;23.278;2023-02-22T15:13:03;94732.19;;;17.14;35.94
6132;BME280;3097;42.692;23.278;2023-02-22T15:15:43;94735.59;;;17.15;36.47
6132;BME280;3097;42.692;23.278;2023-02-22T15:18:34;94732.75;;;17.06;36.45
6132;BME280;3097;42.692;23.278;2023-02-22T15:21:05;94730.19;;;16.96;36.95
6132;BME280;3097;42.692;23.278;2023-02-22T15:23:44;94732.81;;;16.81;37.63
6132;BME280;3097;42.692;23.278;2023-02-22T15:26:20;94731.22;;;16.85;37.22
6132;BME280;3097;42.692;23.278;2023-02-22T15:28:52;94729.69;;;16.74;37.71
6132;BME280;3097;42.692;23.278;2023-02-22T15:31:26;94732.56;;;16.82;37.64
6132;BME280;3097;42.692;23.278;2023-02-22T15:33:52;94731.53;;;16.68;37.76
6132;BME280;3097;42.692;23.278;2023-02-22T15:36:20;94734.13;;;16.73;37.91
6132;BME280;3097;42.692;23.278;2023-02-22T15:38:51;94734.91;;;16.74;37.96